Terminal Aerodrome Forecast
Issued by NWS

Current Version | Previous Version | Graphics & Text | Print | Product List | Glossary On
Versions: 1 2 3 4 5 6 7 8 9 10 11 12 13 14 15 16 17 18 19 20 21
292
FTUS41 KRLX 220520
TAFCKB
TAF
KCKB 220520Z 2206/2306 04004KT P6SM SCT100 BKN200
     FM230000 08003KT P6SM SCT250=

USA.gov is the U.S. government's official web portal to all federal, state and local government web resources and services.